createdAt,value
2023-05-11T00:02:21.591Z,100631.94
2023-05-11T00:05:24.888Z,100634.50
2023-05-11T00:08:27.716Z,100642.47
2023-05-11T00:11:31.049Z,100640.25
2023-05-11T00:14:33.862Z,100643.97
2023-05-11T00:17:36.514Z,100646.91
2023-05-11T00:20:39.570Z,100638.72
2023-05-11T00:23:42.304Z,100648.09
2023-05-11T00:26:44.885Z,100647.03
2023-05-11T00:29:47.473Z,100644.16
2023-05-11T00:32:51.846Z,100638.88
2023-05-11T00:35:54.618Z,100648.19
2023-05-11T00:38:57.657Z,100635.97
2023-05-11T00:42:00.835Z,100640.91
2023-05-11T00:45:03.941Z,100637.75
2023-05-11T00:48:07.151Z,100640.97
2023-05-11T00:51:10.648Z,100644.66
2023-05-11T00:54:15.736Z,100638.59
2023-05-11T00:57:18.509Z,100631.78
2023-05-11T01:00:21.872Z,100639.47
2023-05-11T01:03:24.677Z,100645.31
2023-05-11T01:06:44.564Z,100642.81
2023-05-11T01:10:05.953Z,100639.88
2023-05-11T01:13:23.750Z,100636.09
2023-05-11T01:16:30.741Z,100654.03
2023-05-11T01:20:05.994Z,100647.16
2023-05-11T01:23:08.783Z,100648.75
2023-05-11T01:26:35.992Z,100650.38
2023-05-11T01:30:19.191Z,100650.44
2023-05-11T01:33:30.939Z,100645.94
2023-05-11T01:36:38.247Z,100657.59
2023-05-11T01:39:48.901Z,100649.78
2023-05-11T01:42:58.992Z,100654.22
2023-05-11T01:46:03.831Z,100660.81
2023-05-11T01:49:07.976Z,100652.41
2023-05-11T01:52:11.885Z,100651.28
2023-05-11T01:55:18.302Z,100659.56
2023-05-11T01:58:22.811Z,100666.47
2023-05-11T02:01:28.158Z,100657.19
2023-05-11T02:04:31.837Z,100653.50
2023-05-11T02:07:36.901Z,100661.28
2023-05-11T02:10:41.655Z,100663.91
2023-05-11T02:13:47.098Z,100656.34
2023-05-11T02:16:50.517Z,100652.25
2023-05-11T02:19:54.473Z,100667.06
2023-05-11T02:22:58.750Z,100660.94
2023-05-11T02:26:04.160Z,100664.91
2023-05-11T02:29:06.859Z,100665.94
2023-05-11T02:32:12.601Z,100662.59
2023-05-11T02:35:24.010Z,100670.84
2023-05-11T02:38:32.597Z,100670.91
2023-05-11T02:41:41.935Z,100669.63
2023-05-11T02:45:09.046Z,100666.19
2023-05-11T02:48:21.520Z,100675.97
2023-05-11T02:51:32.619Z,100675.78
2023-05-11T02:54:37.590Z,100672.63
2023-05-11T02:57:40.718Z,100673.69
2023-05-11T03:00:45.885Z,100679.00
2023-05-11T03:03:48.964Z,100675.81
2023-05-11T03:06:51.954Z,100676.31
2023-05-11T03:09:55.181Z,100676.31
2023-05-11T03:12:58.893Z,100680.03
2023-05-11T03:16:02.804Z,100685.31
2023-05-11T03:19:08.532Z,100680.03
2023-05-11T03:22:12.197Z,100680.03
2023-05-11T03:25:16.398Z,100685.56
2023-05-11T03:28:23.081Z,100685.31
2023-05-11T03:31:36.375Z,100692.16
2023-05-11T03:34:39.612Z,100692.44
2023-05-11T03:37:44.321Z,100686.38
2023-05-11T03:40:48.518Z,100681.53
2023-05-11T03:43:52.667Z,100683.31
2023-05-11T03:46:58.460Z,100681.41
2023-05-11T03:50:02.636Z,100682.66
2023-05-11T03:53:06.636Z,100691.38
2023-05-11T03:56:09.299Z,100695.06
2023-05-11T03:59:16.590Z,100700.06
2023-05-11T04:02:19.395Z,100696.44
2023-05-11T04:05:21.914Z,100700.22
2023-05-11T04:08:25.248Z,100701.66
2023-05-11T04:11:30.147Z,100703.31
2023-05-11T04:14:32.981Z,100696.47
2023-05-11T04:17:36.357Z,100698.22
2023-05-11T04:20:38.738Z,100704.44
2023-05-11T04:23:41.923Z,100706.78
2023-05-11T04:26:44.349Z,100707.53
2023-05-11T04:29:48.775Z,100705.13
2023-05-11T04:32:52.617Z,100713.34
2023-05-11T04:35:55.886Z,100702.91
2023-05-11T04:39:00.429Z,100696.63
2023-05-11T04:42:03.842Z,100704.09
2023-05-11T04:45:07.420Z,100700.72
2023-05-11T04:48:10.709Z,100703.50
2023-05-11T04:51:13.172Z,100703.00
2023-05-11T04:54:19.446Z,100702.50
2023-05-11T04:57:22.154Z,100708.41
2023-05-11T05:00:24.999Z,100714.16
2023-05-11T05:03:27.674Z,100711.16
2023-05-11T05:06:32.436Z,100721.06
2023-05-11T05:09:34.865Z,100717.53
2023-05-11T05:12:40.841Z,100718.38
2023-05-11T05:15:43.600Z,100720.22
2023-05-11T05:18:46.647Z,100727.06
2023-05-11T05:21:50.462Z,100727.00
2023-05-11T05:24:53.407Z,100735.25
2023-05-11T05:27:56.043Z,100735.00
2023-05-11T05:30:58.804Z,100734.81
2023-05-11T05:34:03.230Z,100728.72
2023-05-11T05:37:06.613Z,100724.84
2023-05-11T05:40:10.053Z,100735.41
2023-05-11T05:43:18.411Z,100726.88
2023-05-11T05:46:20.967Z,100722.66
2023-05-11T05:49:23.853Z,100727.03
2023-05-11T05:52:26.410Z,100729.78
2023-05-11T05:55:30.047Z,100735.19
2023-05-11T05:58:33.633Z,100728.66
2023-05-11T06:01:36.431Z,100733.56
2023-05-11T06:04:42.212Z,100736.03
2023-05-11T06:07:51.500Z,100734.00
2023-05-11T06:11:01.148Z,100736.72
2023-05-11T06:14:04.005Z,100731.53
2023-05-11T06:17:06.733Z,100724.94
2023-05-11T06:20:09.694Z,100731.50
2023-05-11T06:23:12.241Z,100735.28
2023-05-11T06:26:16.908Z,100721.06
2023-05-11T06:29:22.403Z,100729.81
2023-05-11T06:32:25.682Z,100731.34
2023-05-11T06:35:30.466Z,100732.03
2023-05-11T06:38:33.918Z,100740.06
2023-05-11T06:41:36.670Z,100744.00
2023-05-11T06:44:40.704Z,100748.22
2023-05-11T06:47:43.598Z,100744.78
2023-05-11T06:50:46.669Z,100741.56
2023-05-11T06:53:52.487Z,100747.25
2023-05-11T06:56:55.413Z,100736.41
2023-05-11T06:59:58.597Z,100734.38
2023-05-11T07:03:01.127Z,100728.00
2023-05-11T07:06:03.796Z,100730.88
2023-05-11T07:09:06.673Z,100728.56
2023-05-11T07:12:09.106Z,100727.25
2023-05-11T07:15:12.572Z,100727.94
2023-05-11T07:18:16.256Z,100731.84
2023-05-11T07:21:18.882Z,100728.38
2023-05-11T07:24:21.522Z,100730.00
2023-05-11T07:27:24.400Z,100727.78
2023-05-11T07:30:27.251Z,100724.34
2023-05-11T07:33:30.023Z,100718.13
2023-05-11T07:36:33.133Z,100720.59
2023-05-11T07:39:35.821Z,100721.13
2023-05-11T07:42:38.284Z,100723.31
2023-05-11T07:45:41.064Z,100725.91
2023-05-11T07:48:43.531Z,100724.44
2023-05-11T07:51:46.160Z,100713.97
2023-05-11T07:54:48.671Z,100712.78
2023-05-11T07:57:52.449Z,100718.63
2023-05-11T08:00:55.538Z,100712.78
2023-05-11T08:03:58.569Z,100719.00
2023-05-11T08:07:01.128Z,100713.97
2023-05-11T08:10:03.941Z,100719.78
2023-05-11T08:13:06.736Z,100720.16
2023-05-11T08:16:09.704Z,100717.47
2023-05-11T08:19:13.331Z,100719.81
2023-05-11T08:22:16.313Z,100721.28
2023-05-11T08:25:19.763Z,100720.41
2023-05-11T08:28:22.675Z,100714.31
2023-05-11T08:31:25.614Z,100720.59
2023-05-11T08:34:28.824Z,100704.88
2023-05-11T08:37:31.634Z,100703.38
2023-05-11T08:40:35.654Z,100697.53
2023-05-11T08:43:39.851Z,100698.97
2023-05-11T08:46:46.955Z,100692.19
2023-05-11T08:49:51.103Z,100684.78
2023-05-11T08:52:53.938Z,100690.94
2023-05-11T08:55:59.596Z,100691.34
2023-05-11T08:59:05.242Z,100690.03
2023-05-11T09:02:11.642Z,100682.22
2023-05-11T09:05:15.102Z,100680.59
2023-05-11T09:08:19.493Z,100672.63
2023-05-11T09:11:22.948Z,100675.28
2023-05-11T09:14:27.660Z,100680.28
2023-05-11T09:17:30.568Z,100675.00
2023-05-11T09:20:34.311Z,100672.78
2023-05-11T09:23:37.067Z,100668.19
2023-05-11T09:26:39.665Z,100662.78
2023-05-11T09:29:42.225Z,100661.53
2023-05-11T09:32:58.326Z,100658.66
2023-05-11T09:36:02.892Z,100658.66
2023-05-11T09:39:05.669Z,100651.00
2023-05-11T09:42:26.350Z,100653.16
2023-05-11T09:45:42.715Z,100646.59
2023-05-11T09:48:45.426Z,100638.28
2023-05-11T09:51:47.987Z,100638.94
2023-05-11T09:54:52.031Z,100636.69
2023-05-11T09:57:57.042Z,100624.84
2023-05-11T10:00:59.562Z,100615.13
2023-05-11T10:04:21.356Z,100619.94
2023-05-11T10:07:35.108Z,100617.50
2023-05-11T10:10:37.701Z,100604.00
2023-05-11T10:13:40.818Z,100604.16
2023-05-11T10:16:44.246Z,100591.13
2023-05-11T10:19:48.973Z,100593.00
2023-05-11T10:22:53.657Z,100592.81
2023-05-11T10:25:57.959Z,100591.97
2023-05-11T10:29:01.404Z,100585.19
2023-05-11T10:32:07.377Z,100588.66
2023-05-11T10:35:10.138Z,100587.03
2023-05-11T10:38:13.386Z,100581.38
2023-05-11T10:41:40.056Z,100584.94
2023-05-11T10:45:01.626Z,100583.84
2023-05-11T10:48:29.228Z,100574.59
2023-05-11T10:51:57.956Z,100573.91
2023-05-11T10:55:10.379Z,100559.81
2023-05-11T10:58:37.761Z,100553.47
2023-05-11T11:01:42.454Z,100566.88
2023-05-11T11:04:49.849Z,100555.06
2023-05-11T11:08:00.305Z,100554.41
2023-05-11T11:11:05.031Z,100557.75
2023-05-11T11:14:10.371Z,100550.13
2023-05-11T11:17:18.903Z,100551.97
2023-05-11T11:20:48.765Z,100547.69
2023-05-11T11:23:51.383Z,100535.28
2023-05-11T11:26:53.834Z,100541.13
2023-05-11T11:30:15.156Z,100543.25
2023-05-11T11:33:20.435Z,100550.16
2023-05-11T11:36:58.848Z,100550.47
2023-05-11T11:40:13.225Z,100530.69
2023-05-11T11:43:22.896Z,100540.03
2023-05-11T11:46:28.847Z,100543.47
2023-05-11T11:49:31.554Z,100540.63
2023-05-11T11:52:34.728Z,100540.97
2023-05-11T11:55:51.258Z,100533.19
2023-05-11T11:58:58.549Z,100524.66
2023-05-11T12:02:02.093Z,100534.34
2023-05-11T12:05:18.535Z,100531.00
2023-05-11T12:08:24.035Z,100525.53
2023-05-11T12:11:29.800Z,100529.06
2023-05-11T12:14:33.707Z,100512.94
2023-05-11T12:17:38.838Z,100509.81
2023-05-11T12:20:41.486Z,100508.84
2023-05-11T12:24:02.155Z,100518.19
2023-05-11T12:27:05.112Z,100517.41
2023-05-11T12:30:09.001Z,100514.69
2023-05-11T12:33:15.236Z,100509.25
2023-05-11T12:36:18.679Z,100513.38
2023-05-11T12:39:25.893Z,100509.03
2023-05-11T12:42:28.402Z,100497.00
2023-05-11T12:45:31.159Z,100492.78
2023-05-11T12:48:34.690Z,100495.50
2023-05-11T12:52:02.594Z,100489.84
2023-05-11T12:55:05.877Z,100495.25
2023-05-11T12:58:16.032Z,100479.47
2023-05-11T13:01:24.090Z,100476.81
2023-05-11T13:04:30.578Z,100463.31
2023-05-11T13:07:35.124Z,100461.28
2023-05-11T13:10:37.797Z,100464.53
2023-05-11T13:13:40.360Z,100460.31
2023-05-11T13:16:53.935Z,100464.06
2023-05-11T13:19:56.438Z,100464.00
2023-05-11T13:23:14.182Z,100451.53
2023-05-11T13:26:24.049Z,100445.53
2023-05-11T13:29:27.247Z,100461.91
2023-05-11T13:32:30.299Z,100457.00
2023-05-11T13:35:32.962Z,100449.34
2023-05-11T13:38:35.620Z,100448.44
2023-05-11T13:41:38.205Z,100450.31
2023-05-11T13:44:40.614Z,100454.09
2023-05-11T13:47:45.375Z,100443.66
2023-05-11T13:50:48.184Z,100440.44
2023-05-11T13:53:50.727Z,100443.94
2023-05-11T13:56:53.297Z,100435.38
2023-05-11T13:59:56.862Z,100434.47
2023-05-11T14:03:00.628Z,100432.66
2023-05-11T14:06:03.577Z,100426.72
2023-05-11T14:09:06.137Z,100430.72
2023-05-11T14:12:08.880Z,100418.97
2023-05-11T14:15:11.788Z,100422.06
2023-05-11T14:18:14.600Z,100413.94
2023-05-11T14:21:17.674Z,100413.88
2023-05-11T14:24:21.101Z,100414.47
2023-05-11T14:27:24.105Z,100414.47
2023-05-11T14:30:26.849Z,100416.34
2023-05-11T14:33:29.533Z,100414.56
2023-05-11T14:36:32.371Z,100420.94
2023-05-11T14:39:34.856Z,100417.41
2023-05-11T14:42:37.941Z,100416.59
2023-05-11T14:45:40.832Z,100416.06
2023-05-11T14:48:43.704Z,100413.16
2023-05-11T14:51:46.104Z,100412.56
2023-05-11T14:54:49.448Z,100400.88
2023-05-11T14:57:53.272Z,100400.56
2023-05-11T15:00:55.755Z,100399.81
2023-05-11T15:03:58.260Z,100406.75
2023-05-11T15:07:00.862Z,100408.38
2023-05-11T15:10:03.515Z,100413.78
2023-05-11T15:13:07.064Z,100406.81
2023-05-11T15:16:09.981Z,100407.06
2023-05-11T15:19:12.788Z,100397.06
2023-05-11T15:22:17.280Z,100402.16
2023-05-11T15:25:23.159Z,100397.44
2023-05-11T15:28:26.127Z,100400.91
2023-05-11T15:31:28.810Z,100394.34
2023-05-11T15:34:31.439Z,100405.13
2023-05-11T15:37:34.076Z,100405.97
2023-05-11T15:40:36.499Z,100395.13
2023-05-11T15:43:38.942Z,100401.25
2023-05-11T15:46:41.397Z,100403.19
2023-05-11T15:49:44.526Z,100403.16
2023-05-11T15:52:46.985Z,100399.72
2023-05-11T15:55:51.310Z,100407.47
2023-05-11T15:58:53.959Z,100410.91
2023-05-11T16:01:56.502Z,100402.41
2023-05-11T16:04:58.962Z,100405.09
2023-05-11T16:08:01.597Z,100406.63
2023-05-11T16:11:04.034Z,100401.63
2023-05-11T16:14:06.616Z,100405.09
2023-05-11T16:17:09.255Z,100412.28
2023-05-11T16:20:12.444Z,100404.81
2023-05-11T16:23:14.930Z,100403.19
2023-05-11T16:26:17.763Z,100401.59
2023-05-11T16:29:20.426Z,100407.78
2023-05-11T16:32:23.481Z,100404.56
2023-05-11T16:35:26.273Z,100401.97
2023-05-11T16:38:28.843Z,100412.47
2023-05-11T16:41:31.578Z,100394.94
2023-05-11T16:44:34.172Z,100406.91
2023-05-11T16:47:36.573Z,100403.31
2023-05-11T16:50:39.225Z,100402.44
2023-05-11T16:53:42.068Z,100406.91
2023-05-11T16:56:44.589Z,100404.50
2023-05-11T16:59:47.201Z,100398.91
2023-05-11T17:02:49.740Z,100409.16
2023-05-11T17:05:52.462Z,100414.72
2023-05-11T17:08:55.170Z,100409.09
2023-05-11T17:11:57.592Z,100405.78
2023-05-11T17:15:00.693Z,100410.31
2023-05-11T17:18:04.275Z,100411.72
2023-05-11T17:21:07.002Z,100406.03
2023-05-11T17:24:09.800Z,100419.06
2023-05-11T17:27:12.391Z,100421.09
2023-05-11T17:30:15.263Z,100417.75
2023-05-11T17:33:18.164Z,100422.75
2023-05-11T17:36:21.558Z,100426.22
2023-05-11T17:39:24.146Z,100427.28
2023-05-11T17:42:27.002Z,100424.91
2023-05-11T17:45:30.101Z,100431.47
2023-05-11T17:48:32.696Z,100421.16
2023-05-11T17:51:35.353Z,100433.56
2023-05-11T17:54:37.954Z,100427.75
2023-05-11T17:57:41.303Z,100426.06
2023-05-11T18:00:48.734Z,100424.81
2023-05-11T18:03:51.619Z,100422.47
2023-05-11T18:06:54.278Z,100428.56
2023-05-11T18:09:56.788Z,100435.47
2023-05-11T18:12:59.788Z,100436.97
2023-05-11T18:16:02.459Z,100442.06
2023-05-11T18:19:05.891Z,100442.06
2023-05-11T18:22:08.919Z,100437.28
2023-05-11T18:25:11.470Z,100447.16
2023-05-11T18:28:14.027Z,100454.44
2023-05-11T18:31:18.960Z,100453.13
2023-05-11T18:34:21.571Z,100454.47
2023-05-11T18:37:24.612Z,100463.06
2023-05-11T18:40:27.459Z,100464.38
2023-05-11T18:43:29.925Z,100469.41
2023-05-11T18:46:32.913Z,100466.06
2023-05-11T18:49:35.540Z,100473.91
2023-05-11T18:52:38.222Z,100479.31
2023-05-11T18:55:52.087Z,100471.44
2023-05-11T18:58:55.874Z,100467.94
2023-05-11T19:01:58.613Z,100473.03
2023-05-11T19:05:01.363Z,100475.84
2023-05-11T19:08:04.307Z,100478.91
2023-05-11T19:11:08.393Z,100485.81
2023-05-11T19:14:14.346Z,100472.97
2023-05-11T19:17:17.208Z,100484.03
2023-05-11T19:20:20.263Z,100480.50
2023-05-11T19:23:23.036Z,100486.97
2023-05-11T19:26:26.086Z,100490.56
2023-05-11T19:29:28.704Z,100490.16
2023-05-11T19:32:31.763Z,100492.53
2023-05-11T19:35:34.284Z,100495.75
2023-05-11T19:38:38.100Z,100494.03
2023-05-11T19:41:41.022Z,100499.88
2023-05-11T19:44:43.802Z,100495.72
2023-05-11T19:47:46.536Z,100493.69
2023-05-11T19:50:48.990Z,100501.72
2023-05-11T19:53:51.789Z,100498.59
2023-05-11T19:56:56.301Z,100497.63
2023-05-11T19:59:58.981Z,100501.78
2023-05-11T20:03:01.734Z,100502.09
2023-05-11T20:06:04.210Z,100495.66
2023-05-11T20:09:07.284Z,100497.78
2023-05-11T20:12:10.903Z,100499.38
2023-05-11T20:15:13.286Z,100492.31
2023-05-11T20:18:19.763Z,100498.75
2023-05-11T20:21:22.566Z,100494.84
2023-05-11T20:24:25.234Z,100491.97
2023-05-11T20:27:27.829Z,100502.28
2023-05-11T20:30:30.436Z,100490.78
2023-05-11T20:36:39.249Z,100490.31
2023-05-11T20:39:43.748Z,100487.66
2023-05-11T20:42:46.184Z,100497.78
2023-05-11T20:45:49.087Z,100494.94
2023-05-11T20:48:52.161Z,100495.72
2023-05-11T20:51:55.126Z,100498.75
2023-05-11T20:54:57.904Z,100499.34
2023-05-11T20:58:00.715Z,100496.72
2023-05-11T21:01:03.198Z,100497.50
2023-05-11T21:04:07.308Z,100496.25
2023-05-11T21:07:09.692Z,100490.91
2023-05-11T21:10:12.734Z,100493.09
2023-05-11T21:13:15.800Z,100500.19
2023-05-11T21:16:18.333Z,100500.53
2023-05-11T21:19:21.045Z,100496.59
2023-05-11T21:22:23.603Z,100508.88
2023-05-11T21:25:26.426Z,100509.19
2023-05-11T21:28:32.694Z,100511.84
2023-05-11T21:31:35.411Z,100512.16
2023-05-11T21:34:38.438Z,100509.19
2023-05-11T21:37:40.930Z,100517.06
2023-05-11T21:41:03.848Z,100511.72
2023-05-11T21:44:06.460Z,100519.25
2023-05-11T21:47:08.887Z,100516.59
2023-05-11T21:50:12.012Z,100523.63
2023-05-11T21:53:14.479Z,100519.53
2023-05-11T21:56:17.410Z,100525.19
2023-05-11T21:59:20.218Z,100536.47
2023-05-11T22:02:23.017Z,100531.47
2023-05-11T22:05:26.567Z,100518.72
2023-05-11T22:08:29.146Z,100520.91
2023-05-11T22:11:34.139Z,100521.56
2023-05-11T22:14:36.760Z,100517.47
2023-05-11T22:17:39.510Z,100526.06
2023-05-11T22:20:42.222Z,100518.72
2023-05-11T22:23:44.813Z,100515.25
2023-05-11T22:26:47.444Z,100516.66
2023-05-11T22:29:50.278Z,100523.91
2023-05-11T22:32:53.204Z,100514.81
2023-05-11T22:35:56.053Z,100517.47
2023-05-11T22:38:58.420Z,100519.69
2023-05-11T22:42:01.337Z,100514.97
2023-05-11T22:45:04.229Z,100519.72
2023-05-11T22:48:07.562Z,100523.16
2023-05-11T22:51:10.453Z,100525.81
2023-05-11T22:54:14.549Z,100532.41
2023-05-11T22:57:17.295Z,100543.56
2023-05-11T23:00:20.575Z,100536.38
2023-05-11T23:03:24.119Z,100538.59
2023-05-11T23:06:26.883Z,100543.09
2023-05-11T23:09:29.301Z,100552.06
2023-05-11T23:12:32.064Z,100550.16
2023-05-11T23:15:34.609Z,100550.47
2023-05-11T23:18:37.169Z,100546.84
2023-05-11T23:21:39.993Z,100552.84
2023-05-11T23:24:42.604Z,100551.59
2023-05-11T23:27:45.294Z,100544.19
2023-05-11T23:30:47.792Z,100552.50
2023-05-11T23:33:50.301Z,100549.53
2023-05-11T23:36:53.151Z,100548.75
2023-05-11T23:39:55.611Z,100547.97
2023-05-11T23:42:58.323Z,100541.72
2023-05-11T23:46:02.506Z,100546.41
2023-05-11T23:49:04.957Z,100549.06
2023-05-11T23:52:07.670Z,100553.47
2023-05-11T23:55:10.631Z,100553.63
2023-05-11T23:58:13.334Z,100551.91
